createdAt,value
2023-01-09T00:00:49.772Z,8.20
2023-01-09T00:03:16.430Z,8.20
2023-01-09T00:05:43.024Z,8.10
2023-01-09T00:08:09.611Z,8.10
2023-01-09T00:10:36.255Z,8.10
2023-01-09T00:13:02.851Z,8.10
2023-01-09T00:15:29.514Z,8.10
2023-01-09T00:17:56.139Z,8.10
2023-01-09T00:20:22.768Z,8.10
2023-01-09T00:22:49.512Z,8.20
2023-01-09T00:25:16.152Z,8.20
2023-01-09T00:27:42.732Z,8.20
2023-01-09T00:30:10.239Z,8.20
2023-01-09T00:32:36.821Z,8.30
2023-01-09T00:35:03.617Z,8.40
2023-01-09T00:37:30.165Z,8.50
2023-01-09T00:39:56.715Z,8.40
2023-01-09T00:42:27.355Z,8.50
2023-01-09T00:45:01.641Z,8.50
2023-01-09T00:47:33.401Z,8.50
2023-01-09T00:50:04.994Z,8.50
2023-01-09T00:52:34.356Z,8.50
2023-01-09T00:55:01.229Z,8.50
2023-01-09T00:57:28.036Z,8.50
2023-01-09T00:59:54.656Z,8.60
2023-01-09T01:02:21.595Z,8.60
2023-01-09T01:05:07.000Z,8.60
2023-01-09T01:07:39.814Z,8.70
2023-01-09T01:10:10.483Z,8.70
2023-01-09T01:12:38.598Z,8.80
2023-01-09T01:15:06.881Z,8.80
2023-01-09T01:17:35.594Z,8.80
2023-01-09T01:20:02.912Z,8.90
2023-01-09T01:22:29.677Z,8.80
2023-01-09T01:24:56.424Z,8.90
2023-01-09T01:27:23.000Z,8.90
2023-01-09T01:29:49.641Z,8.80
2023-01-09T01:32:16.711Z,8.90
2023-01-09T01:34:43.307Z,8.80
2023-01-09T01:37:09.983Z,8.80
2023-01-09T01:39:36.566Z,8.70
2023-01-09T01:42:05.212Z,8.70
2023-01-09T01:45:09.789Z,8.70
2023-01-09T01:48:13.700Z,8.60
2023-01-09T01:50:47.644Z,8.50
2023-01-09T01:53:19.510Z,8.50
2023-01-09T01:55:57.346Z,8.50
2023-01-09T01:58:24.077Z,8.40
2023-01-09T02:00:50.710Z,8.40
2023-01-09T02:03:21.734Z,8.40
2023-01-09T02:05:49.120Z,8.40
2023-01-09T02:08:16.649Z,8.40
2023-01-09T02:10:44.846Z,8.40
2023-01-09T02:13:13.041Z,8.40
2023-01-09T02:15:52.196Z,8.30
2023-01-09T02:18:37.054Z,8.30
2023-01-09T02:21:24.905Z,8.20
2023-01-09T02:24:10.196Z,8.20
2023-01-09T02:27:04.616Z,8.20
2023-01-09T02:30:00.440Z,8.20
2023-01-09T02:32:47.335Z,8.20
2023-01-09T02:35:31.721Z,8.30
2023-01-09T02:38:21.130Z,8.30
2023-01-09T02:40:59.664Z,8.30
2023-01-09T02:43:27.110Z,8.30
2023-01-09T02:45:53.795Z,8.30
2023-01-09T02:48:20.454Z,8.20
2023-01-09T02:51:19.238Z,8.30
2023-01-09T02:54:21.417Z,8.20
2023-01-09T02:57:11.518Z,8.20
2023-01-09T02:59:54.153Z,8.20
2023-01-09T03:02:37.460Z,8.20
2023-01-09T03:05:11.645Z,8.20
2023-01-09T03:07:52.682Z,8.10
2023-01-09T03:10:33.296Z,8.10
2023-01-09T03:13:02.242Z,8.10
2023-01-09T03:15:34.389Z,8.10
2023-01-09T03:18:01.519Z,8.10
2023-01-09T03:20:30.412Z,8.00
2023-01-09T03:23:03.621Z,8.00
2023-01-09T03:25:31.114Z,8.00
2023-01-09T03:28:00.311Z,8.10
2023-01-09T03:30:28.888Z,8.10
2023-01-09T03:32:56.112Z,8.00
2023-01-09T03:35:23.696Z,8.00
2023-01-09T03:37:51.663Z,8.00
2023-01-09T03:40:19.550Z,7.90
2023-01-09T03:42:46.414Z,7.90
2023-01-09T03:45:13.282Z,7.90
2023-01-09T03:47:39.925Z,7.80
2023-01-09T03:50:07.644Z,7.70
2023-01-09T03:52:35.922Z,7.80
2023-01-09T03:55:02.579Z,7.80
2023-01-09T03:57:29.313Z,7.80
2023-01-09T03:59:55.979Z,7.80
2023-01-09T04:02:22.759Z,7.80
2023-01-09T04:04:49.356Z,7.80
2023-01-09T04:07:15.955Z,7.80
2023-01-09T04:09:42.559Z,7.80
2023-01-09T04:12:09.315Z,7.80
2023-01-09T04:14:35.919Z,7.90
2023-01-09T04:17:02.620Z,7.80
2023-01-09T04:19:29.329Z,7.80
2023-01-09T04:21:55.922Z,7.80
2023-01-09T04:24:22.530Z,7.80
2023-01-09T04:26:49.159Z,7.80
2023-01-09T04:29:15.940Z,7.80
2023-01-09T04:31:42.636Z,7.80
2023-01-09T04:34:12.619Z,7.80
2023-01-09T04:36:40.027Z,7.80
2023-01-09T04:39:06.658Z,7.70
2023-01-09T04:41:51.579Z,7.70
2023-01-09T04:44:20.773Z,7.70
2023-01-09T04:46:47.980Z,7.70
2023-01-09T04:49:15.453Z,7.70
2023-01-09T04:51:42.112Z,7.70
2023-01-09T04:54:08.929Z,7.70
2023-01-09T04:56:36.216Z,7.70
2023-01-09T04:59:03.971Z,7.60
2023-01-09T05:01:30.783Z,7.70
2023-01-09T05:03:57.948Z,7.60
2023-01-09T05:06:24.696Z,7.60
2023-01-09T05:08:51.510Z,7.60
2023-01-09T05:11:18.413Z,7.60
2023-01-09T05:13:45.509Z,7.60
2023-01-09T05:16:12.133Z,7.60
2023-01-09T05:18:39.164Z,7.60
2023-01-09T05:21:06.113Z,7.60
2023-01-09T05:23:32.677Z,7.50
2023-01-09T05:25:59.266Z,7.50
2023-01-09T05:28:25.922Z,7.50
2023-01-09T05:30:52.567Z,7.50
2023-01-09T05:33:19.155Z,7.50
2023-01-09T05:35:45.740Z,7.50
2023-01-09T05:38:12.331Z,7.50
2023-01-09T05:40:40.506Z,7.50
2023-01-09T05:43:07.483Z,7.40
2023-01-09T05:45:34.442Z,7.40
2023-01-09T05:48:01.334Z,7.40
2023-01-09T05:50:28.236Z,7.40
2023-01-09T05:52:54.902Z,7.40
2023-01-09T05:55:21.576Z,7.40
2023-01-09T05:57:48.243Z,7.30
2023-01-09T06:00:15.457Z,7.30
2023-01-09T06:02:42.369Z,7.30
2023-01-09T06:05:09.696Z,7.30
2023-01-09T06:07:39.774Z,7.30
2023-01-09T06:10:10.429Z,7.30
2023-01-09T06:12:37.254Z,7.30
2023-01-09T06:15:04.330Z,7.20
2023-01-09T06:17:31.008Z,7.20
2023-01-09T06:19:57.602Z,7.10
2023-01-09T06:22:24.240Z,7.10
2023-01-09T06:24:50.803Z,7.10
2023-01-09T06:27:17.414Z,7.00
2023-01-09T06:29:44.032Z,6.90
2023-01-09T06:32:10.805Z,6.80
2023-01-09T06:34:37.472Z,6.80
2023-01-09T06:37:04.141Z,6.70
2023-01-09T06:39:30.764Z,6.60
2023-01-09T06:41:57.296Z,6.60
2023-01-09T06:44:23.929Z,6.60
2023-01-09T06:46:50.500Z,6.50
2023-01-09T06:49:17.965Z,6.50
2023-01-09T06:51:44.559Z,6.50
2023-01-09T06:54:11.155Z,6.50
2023-01-09T06:56:37.718Z,6.50
2023-01-09T06:59:04.300Z,6.50
2023-01-09T07:01:30.995Z,6.40
2023-01-09T07:03:57.743Z,6.40
2023-01-09T07:06:24.495Z,6.30
2023-01-09T07:08:51.104Z,6.20
2023-01-09T07:11:17.682Z,6.20
2023-01-09T07:13:44.252Z,6.20
2023-01-09T07:16:10.955Z,6.10
2023-01-09T07:18:37.607Z,6.10
2023-01-09T07:23:32.077Z,5.90
2023-01-09T07:25:59.988Z,5.90
2023-01-09T07:28:26.690Z,5.90
2023-01-09T07:30:53.312Z,5.90
2023-01-09T07:33:19.850Z,5.90
2023-01-09T07:35:46.478Z,5.90
2023-01-09T07:38:13.215Z,5.80
2023-01-09T07:40:39.779Z,5.90
2023-01-09T07:43:06.334Z,5.90
2023-01-09T07:45:32.936Z,5.80
2023-01-09T07:47:59.504Z,5.80
2023-01-09T07:50:26.232Z,5.80
2023-01-09T07:52:52.806Z,5.80
2023-01-09T07:55:19.385Z,5.80
2023-01-09T07:57:50.422Z,5.80
2023-01-09T08:00:18.526Z,5.80
2023-01-09T08:02:45.199Z,5.80
2023-01-09T08:05:14.844Z,5.80
2023-01-09T08:07:41.798Z,5.80
2023-01-09T08:10:10.453Z,5.80
2023-01-09T08:12:37.160Z,5.80
2023-01-09T08:15:04.300Z,5.90
2023-01-09T08:17:30.848Z,5.90
2023-01-09T08:19:57.458Z,6.00
2023-01-09T08:22:24.013Z,6.00
2023-01-09T08:24:50.608Z,6.10
2023-01-09T08:27:17.182Z,6.00
2023-01-09T08:29:43.773Z,6.10
2023-01-09T08:32:10.397Z,6.10
2023-01-09T08:34:37.115Z,6.20
2023-01-09T08:37:03.925Z,6.20
2023-01-09T08:39:30.564Z,6.40
2023-01-09T08:42:15.923Z,6.30
2023-01-09T08:45:01.269Z,6.40
2023-01-09T08:47:33.210Z,6.50
2023-01-09T08:50:00.840Z,6.50
2023-01-09T08:52:29.888Z,6.60
2023-01-09T08:54:56.925Z,6.70
2023-01-09T08:57:24.303Z,6.70
2023-01-09T08:59:51.037Z,6.80
2023-01-09T09:02:17.607Z,7.00
2023-01-09T09:04:44.683Z,7.10
2023-01-09T09:07:11.593Z,7.20
2023-01-09T09:09:38.218Z,7.30
2023-01-09T09:12:05.412Z,7.30
2023-01-09T09:14:50.525Z,7.40
2023-01-09T09:17:17.134Z,7.50
2023-01-09T09:19:43.695Z,7.50
2023-01-09T09:22:10.272Z,7.60
2023-01-09T09:24:36.882Z,7.60
2023-01-09T09:27:04.632Z,7.70
2023-01-09T09:29:31.199Z,7.80
2023-01-09T09:32:00.617Z,7.80
2023-01-09T09:34:27.417Z,7.90
2023-01-09T09:36:54.056Z,7.90
2023-01-09T09:39:20.626Z,7.90
2023-01-09T09:42:32.379Z,7.90
2023-01-09T09:45:23.132Z,7.90
2023-01-09T09:48:07.469Z,7.90
2023-01-09T09:50:41.121Z,7.90
2023-01-09T09:53:18.748Z,7.90
2023-01-09T09:55:48.118Z,7.90
2023-01-09T09:58:23.161Z,7.90
2023-01-09T10:00:50.723Z,8.00
2023-01-09T10:03:34.230Z,8.00
2023-01-09T10:06:05.364Z,8.20
2023-01-09T10:08:50.017Z,8.40
2023-01-09T10:11:46.232Z,8.50
2023-01-09T10:14:23.552Z,8.50
2023-01-09T10:17:13.996Z,8.50
2023-01-09T10:20:04.904Z,8.50
2023-01-09T10:22:58.987Z,8.50
2023-01-09T10:25:48.823Z,8.40
2023-01-09T10:28:27.158Z,8.50
2023-01-09T10:31:04.373Z,8.60
2023-01-09T10:33:56.005Z,8.60
2023-01-09T10:36:28.332Z,8.60
2023-01-09T10:38:56.214Z,8.60
2023-01-09T10:41:41.498Z,8.50
2023-01-09T10:44:19.548Z,8.70
2023-01-09T10:46:53.566Z,8.90
2023-01-09T10:49:21.779Z,9.10
2023-01-09T10:51:50.206Z,9.10
2023-01-09T10:54:23.366Z,9.00
2023-01-09T10:57:04.883Z,9.00
2023-01-09T10:59:31.515Z,9.00
2023-01-09T11:01:58.121Z,9.10
2023-01-09T11:04:37.525Z,9.10
2023-01-09T11:07:22.758Z,9.10
2023-01-09T11:10:01.687Z,9.30
2023-01-09T11:12:33.367Z,9.30
2023-01-09T11:15:30.493Z,9.30
2023-01-09T11:18:16.839Z,9.20
2023-01-09T11:20:43.425Z,9.20
2023-01-09T11:23:31.570Z,9.20
2023-01-09T11:26:01.004Z,9.30
2023-01-09T11:28:27.876Z,9.30
2023-01-09T11:30:55.961Z,9.50
2023-01-09T11:33:25.802Z,9.60
2023-01-09T11:36:00.631Z,9.60
2023-01-09T11:38:27.956Z,9.80
2023-01-09T11:40:58.707Z,9.90
2023-01-09T11:43:35.310Z,10.00
2023-01-09T11:46:07.550Z,10.00
2023-01-09T11:48:54.846Z,10.00
2023-01-09T11:51:26.933Z,9.90
2023-01-09T11:54:18.149Z,9.90
2023-01-09T11:56:45.645Z,9.80
2023-01-09T11:59:14.816Z,9.80
2023-01-09T12:02:09.272Z,9.70
2023-01-09T12:04:45.874Z,9.80
2023-01-09T12:07:31.322Z,9.70
2023-01-09T12:10:31.805Z,9.90
2023-01-09T12:13:14.712Z,9.80
2023-01-09T12:15:47.284Z,9.80
2023-01-09T12:18:37.234Z,9.80
2023-01-09T12:21:32.335Z,10.10
2023-01-09T12:24:21.406Z,10.40
2023-01-09T12:27:09.567Z,10.50
2023-01-09T12:29:42.036Z,10.30
2023-01-09T12:32:41.284Z,10.20
2023-01-09T12:35:20.406Z,10.30
2023-01-09T12:37:59.058Z,10.00
2023-01-09T12:40:45.644Z,9.90
2023-01-09T12:43:44.810Z,9.80
2023-01-09T12:46:11.325Z,9.80
2023-01-09T12:48:46.678Z,9.60
2023-01-09T12:51:33.510Z,9.60
2023-01-09T12:54:06.383Z,9.50
2023-01-09T12:56:38.464Z,9.70
2023-01-09T12:59:14.010Z,9.70
2023-01-09T13:01:46.660Z,9.70
2023-01-09T13:04:21.798Z,9.70
2023-01-09T13:07:01.040Z,9.70
2023-01-09T13:09:39.031Z,9.70
2023-01-09T13:12:12.432Z,9.60
2023-01-09T13:14:53.805Z,9.60
2023-01-09T13:17:38.434Z,9.50
2023-01-09T13:20:36.188Z,9.50
2023-01-09T13:23:04.973Z,9.50
2023-01-09T13:25:45.136Z,9.40
2023-01-09T13:28:20.974Z,9.40
2023-01-09T13:30:58.587Z,9.20
2023-01-09T13:33:30.889Z,9.20
2023-01-09T13:35:58.712Z,9.10
2023-01-09T13:38:28.067Z,9.00
2023-01-09T13:41:39.957Z,9.10
2023-01-09T13:44:24.115Z,9.10
2023-01-09T13:46:54.211Z,9.10
2023-01-09T13:49:42.681Z,9.00
2023-01-09T13:52:37.131Z,9.00
2023-01-09T13:55:15.896Z,9.10
2023-01-09T13:57:43.749Z,9.00
2023-01-09T14:00:14.392Z,8.90
2023-01-09T14:02:41.199Z,8.90
2023-01-09T14:05:12.918Z,8.90
2023-01-09T14:07:45.295Z,8.90
2023-01-09T14:10:22.801Z,8.90
2023-01-09T14:12:51.275Z,8.90
2023-01-09T14:15:27.967Z,8.90
2023-01-09T14:18:04.193Z,8.90
2023-01-09T14:20:38.382Z,8.80
2023-01-09T14:23:31.427Z,8.70
2023-01-09T14:25:54.818Z,8.70
2023-01-09T14:28:29.039Z,8.60
2023-01-09T14:30:58.744Z,8.60
2023-01-09T14:33:26.988Z,8.50
2023-01-09T14:36:11.259Z,8.50
2023-01-09T14:38:42.742Z,8.40
2023-01-09T14:41:50.110Z,8.40
2023-01-09T14:44:24.827Z,8.40
2023-01-09T14:46:53.270Z,8.40
2023-01-09T14:49:34.257Z,8.30
2023-01-09T14:52:07.809Z,8.30
2023-01-09T14:54:39.950Z,8.30
2023-01-09T14:57:41.248Z,8.20
2023-01-09T15:00:14.251Z,8.20
2023-01-09T15:05:33.263Z,8.30
2023-01-09T15:08:03.108Z,8.20
2023-01-09T15:10:32.734Z,8.10
2023-01-09T15:13:02.881Z,8.00
2023-01-09T15:15:30.006Z,7.90
2023-01-09T15:18:03.771Z,7.90
2023-01-09T15:20:32.400Z,7.80
2023-01-09T15:23:05.929Z,7.70
2023-01-09T15:25:40.762Z,7.60
2023-01-09T15:28:30.923Z,7.60
2023-01-09T15:31:14.831Z,7.50
2023-01-09T15:33:43.323Z,7.30
2023-01-09T15:36:20.865Z,7.30
2023-01-09T15:38:49.063Z,7.20
2023-01-09T15:41:38.804Z,7.10
2023-01-09T15:44:11.105Z,7.20
2023-01-09T15:46:37.685Z,7.10
2023-01-09T15:49:04.406Z,7.10
2023-01-09T15:51:32.373Z,7.10
2023-01-09T15:54:00.948Z,7.10
2023-01-09T15:56:33.126Z,7.10
2023-01-09T15:59:01.443Z,7.00
2023-01-09T16:01:37.567Z,7.10
2023-01-09T16:04:12.894Z,7.00
2023-01-09T16:06:48.942Z,7.00
2023-01-09T16:09:28.216Z,7.00
2023-01-09T16:12:01.516Z,7.00
2023-01-09T16:14:38.625Z,7.00
2023-01-09T16:17:08.735Z,7.00
2023-01-09T16:19:51.542Z,7.00
2023-01-09T16:22:20.976Z,7.00
2023-01-09T16:24:48.516Z,7.00
2023-01-09T16:27:23.799Z,7.00
2023-01-09T16:29:57.409Z,7.00
2023-01-09T16:32:48.361Z,7.10
2023-01-09T16:35:18.162Z,7.10
2023-01-09T16:37:44.799Z,7.10
2023-01-09T16:40:21.613Z,7.10
2023-01-09T16:43:05.447Z,7.00
2023-01-09T16:45:35.810Z,7.00
2023-01-09T16:48:10.423Z,6.90
2023-01-09T16:50:37.153Z,6.90
2023-01-09T16:53:19.294Z,6.90
2023-01-09T16:55:50.035Z,6.90
2023-01-09T16:58:21.908Z,6.90
2023-01-09T17:00:48.507Z,6.90
2023-01-09T17:03:16.355Z,6.90
2023-01-09T17:05:43.505Z,6.90
2023-01-09T17:08:31.541Z,6.90
2023-01-09T17:10:58.770Z,6.90
2023-01-09T17:13:26.366Z,6.80
2023-01-09T17:15:54.735Z,6.80
2023-01-09T17:18:23.584Z,6.80
2023-01-09T17:20:55.891Z,6.70
2023-01-09T17:23:25.502Z,6.60
2023-01-09T17:26:15.229Z,6.60
2023-01-09T17:28:48.857Z,6.60
2023-01-09T17:31:15.674Z,6.50
2023-01-09T17:33:42.813Z,6.50
2023-01-09T17:36:21.370Z,6.50
2023-01-09T17:38:54.551Z,6.40
2023-01-09T17:41:23.048Z,6.40
2023-01-09T17:43:49.671Z,6.40
2023-01-09T17:46:21.158Z,6.40
2023-01-09T17:48:47.740Z,6.40
2023-01-09T17:51:14.297Z,6.40
2023-01-09T17:53:40.859Z,6.30
2023-01-09T17:56:19.227Z,6.30
2023-01-09T17:58:46.583Z,6.40
2023-01-09T18:01:15.818Z,6.30
2023-01-09T18:03:43.519Z,6.30
2023-01-09T18:06:13.683Z,6.30
2023-01-09T18:08:40.532Z,6.30
2023-01-09T18:11:11.932Z,6.30
2023-01-09T18:13:38.491Z,6.30
2023-01-09T18:16:13.114Z,6.30
2023-01-09T18:18:40.286Z,6.40
2023-01-09T18:21:08.727Z,6.40
2023-01-09T18:23:36.076Z,6.40
2023-01-09T18:26:07.024Z,6.40
2023-01-09T18:28:36.991Z,6.40
2023-01-09T18:31:04.029Z,6.40
2023-01-09T18:33:30.798Z,6.40
2023-01-09T18:36:05.357Z,6.40
2023-01-09T18:38:32.041Z,6.40
2023-01-09T18:41:03.054Z,6.30
2023-01-09T18:43:30.046Z,6.40
2023-01-09T18:45:57.168Z,6.40
2023-01-09T18:48:23.911Z,6.40
2023-01-09T18:50:50.488Z,6.40
2023-01-09T18:53:17.087Z,6.40
2023-01-09T18:55:43.719Z,6.50
2023-01-09T18:58:10.341Z,6.50
2023-01-09T19:00:37.100Z,6.50
2023-01-09T19:03:03.721Z,6.50
2023-01-09T19:05:32.455Z,6.40
2023-01-09T19:07:59.040Z,6.40
2023-01-09T19:10:25.781Z,6.30
2023-01-09T19:12:52.371Z,6.30
2023-01-09T19:15:19.068Z,6.30
2023-01-09T19:17:46.741Z,6.20
2023-01-09T19:20:13.402Z,6.30
2023-01-09T19:22:40.023Z,6.20
2023-01-09T19:25:07.161Z,6.30
2023-01-09T19:27:33.833Z,6.30
2023-01-09T19:30:00.525Z,6.30
2023-01-09T19:32:27.185Z,6.30
2023-01-09T19:34:53.855Z,6.30
2023-01-09T19:37:20.528Z,6.30
2023-01-09T19:39:47.155Z,6.30
2023-01-09T19:42:14.142Z,6.30
2023-01-09T19:44:40.828Z,6.40
2023-01-09T19:47:07.792Z,6.50
2023-01-09T19:49:34.643Z,6.60
2023-01-09T19:52:01.252Z,6.60
2023-01-09T19:54:29.153Z,6.60
2023-01-09T19:56:55.893Z,6.70
2023-01-09T19:59:22.621Z,6.70
2023-01-09T20:01:49.565Z,6.80
2023-01-09T20:04:17.384Z,6.80
2023-01-09T20:06:46.979Z,6.80
2023-01-09T20:09:16.737Z,6.80
2023-01-09T20:11:44.753Z,6.80
2023-01-09T20:14:13.750Z,6.80
2023-01-09T20:16:41.283Z,6.80
2023-01-09T20:19:10.441Z,6.80
2023-01-09T20:21:37.097Z,6.80
2023-01-09T20:24:07.797Z,6.80
2023-01-09T20:26:36.136Z,6.80
2023-01-09T20:29:03.003Z,6.70
2023-01-09T20:31:31.522Z,6.80
2023-01-09T20:33:59.651Z,6.80
2023-01-09T20:36:30.102Z,6.80
2023-01-09T20:38:58.590Z,6.80
2023-01-09T20:41:25.944Z,6.80
2023-01-09T20:43:55.993Z,6.80
2023-01-09T20:46:24.975Z,6.80
2023-01-09T20:48:52.024Z,6.80
2023-01-09T20:51:18.754Z,6.80
2023-01-09T20:53:47.488Z,6.80
2023-01-09T20:56:14.284Z,6.80
2023-01-09T20:58:42.300Z,6.80
2023-01-09T21:01:12.780Z,6.70
2023-01-09T21:03:40.371Z,6.70
2023-01-09T21:06:08.916Z,6.70
2023-01-09T21:08:36.027Z,6.70
2023-01-09T21:11:03.444Z,6.70
2023-01-09T21:13:30.532Z,6.70
2023-01-09T21:16:06.647Z,6.70
2023-01-09T21:18:34.431Z,6.70
2023-01-09T21:21:05.753Z,6.60
2023-01-09T21:23:33.175Z,6.60
2023-01-09T21:26:00.219Z,6.60
2023-01-09T21:28:28.466Z,6.60
2023-01-09T21:30:55.068Z,6.60
2023-01-09T21:33:21.902Z,6.60
2023-01-09T21:35:53.666Z,6.60
2023-01-09T21:38:20.338Z,6.70
2023-01-09T21:40:51.874Z,6.70
2023-01-09T21:43:44.723Z,6.60
2023-01-09T21:46:34.626Z,6.60
2023-01-09T21:49:05.359Z,6.60
2023-01-09T21:51:36.239Z,6.60
2023-01-09T21:54:02.867Z,6.60
2023-01-09T21:56:29.486Z,6.60
2023-01-09T21:58:56.027Z,6.60
2023-01-09T22:01:22.669Z,6.70
2023-01-09T22:03:49.306Z,6.70
2023-01-09T22:06:15.894Z,6.70
2023-01-09T22:08:42.460Z,6.70
2023-01-09T22:11:09.061Z,6.70
2023-01-09T22:13:35.609Z,6.70
2023-01-09T22:16:07.361Z,6.60
2023-01-09T22:18:35.453Z,6.70
2023-01-09T22:21:03.197Z,6.70
2023-01-09T22:23:30.147Z,6.70
2023-01-09T22:25:57.206Z,6.70
2023-01-09T22:28:24.066Z,6.70
2023-01-09T22:30:50.689Z,6.70
2023-01-09T22:33:18.023Z,6.70
2023-01-09T22:35:44.579Z,6.70
2023-01-09T22:38:12.197Z,6.60
2023-01-09T22:40:39.839Z,6.60
2023-01-09T22:43:06.727Z,6.60
2023-01-09T22:45:33.735Z,6.60
2023-01-09T22:48:00.320Z,6.50
2023-01-09T22:50:26.978Z,6.60
2023-01-09T22:52:53.612Z,6.50
2023-01-09T22:55:20.174Z,6.50
2023-01-09T22:57:46.723Z,6.60
2023-01-09T23:00:14.759Z,6.60
2023-01-09T23:02:41.460Z,6.60
2023-01-09T23:05:08.345Z,6.60
2023-01-09T23:07:36.000Z,6.60
2023-01-09T23:10:03.515Z,6.60
2023-01-09T23:12:30.078Z,6.70
2023-01-09T23:14:56.638Z,6.60
2023-01-09T23:17:23.527Z,6.70
2023-01-09T23:19:50.443Z,6.70
2023-01-09T23:22:17.051Z,6.70
2023-01-09T23:24:43.620Z,6.60
2023-01-09T23:27:10.490Z,6.70
2023-01-09T23:29:39.720Z,6.60
2023-01-09T23:32:06.564Z,6.60
2023-01-09T23:34:33.715Z,6.60
2023-01-09T23:37:00.596Z,6.60
2023-01-09T23:39:27.282Z,6.60
2023-01-09T23:42:12.678Z,6.60
2023-01-09T23:44:41.075Z,6.60
2023-01-09T23:47:07.659Z,6.60
2023-01-09T23:49:34.243Z,6.60
2023-01-09T23:52:02.301Z,6.60
2023-01-09T23:54:28.870Z,6.50
2023-01-09T23:56:56.417Z,6.50
2023-01-09T23:59:23.331Z,6.50
